sensor_id;sensor_type;location;lat;lon;timestamp;P1;durP1;ratioP1;P2;durP2;ratioP2
13185;SDS011;6658;53.080;7.428;2022-10-16T00:00:39;1.90;;;1.40;;
13185;SDS011;6658;53.080;7.428;2022-10-16T00:03:06;3.60;;;1.20;;
13185;SDS011;6658;53.080;7.428;2022-10-16T00:05:32;3.93;;;1.27;;
13185;SDS011;6658;53.080;7.428;2022-10-16T00:08:03;2.00;;;1.37;;
13185;SDS011;6658;53.080;7.428;2022-10-16T00:10:28;2.03;;;1.43;;
13185;SDS011;6658;53.080;7.428;2022-10-16T00:12:54;1.57;;;1.00;;
13185;SDS011;6658;53.080;7.428;2022-10-16T00:15:20;4.87;;;1.47;;
13185;SDS011;6658;53.080;7.428;2022-10-16T00:17:45;1.30;;;0.97;;
13185;SDS011;6658;53.080;7.428;2022-10-16T00:20:11;5.33;;;1.40;;
13185;SDS011;6658;53.080;7.428;2022-10-16T00:22:36;3.23;;;0.77;;
13185;SDS011;6658;53.080;7.428;2022-10-16T00:25:02;3.33;;;1.30;;
13185;SDS011;6658;53.080;7.428;2022-10-16T00:27:28;2.90;;;1.20;;
13185;SDS011;6658;53.080;7.428;2022-10-16T00:29:54;2.10;;;0.80;;
13185;SDS011;6658;53.080;7.428;2022-10-16T00:32:19;1.37;;;0.87;;
13185;SDS011;6658;53.080;7.428;2022-10-16T00:34:45;2.47;;;0.97;;
13185;SDS011;6658;53.080;7.428;2022-10-16T00:37:12;4.40;;;1.03;;
13185;SDS011;6658;53.080;7.428;2022-10-16T00:39:38;3.47;;;1.40;;
13185;SDS011;6658;53.080;7.428;2022-10-16T00:42:04;3.27;;;1.10;;
13185;SDS011;6658;53.080;7.428;2022-10-16T00:47:11;2.60;;;1.27;;
13185;SDS011;6658;53.080;7.428;2022-10-16T00:49:42;2.13;;;1.20;;
13185;SDS011;6658;53.080;7.428;2022-10-16T00:52:08;3.97;;;1.30;;
13185;SDS011;6658;53.080;7.428;2022-10-16T00:54:35;4.20;;;1.70;;
13185;SDS011;6658;53.080;7.428;2022-10-16T00:57:02;4.83;;;1.73;;
13185;SDS011;6658;53.080;7.428;2022-10-16T00:59:34;2.57;;;1.20;;
13185;SDS011;6658;53.080;7.428;2022-10-16T01:02:03;2.30;;;1.30;;
13185;SDS011;6658;53.080;7.428;2022-10-16T01:04:32;3.47;;;1.40;;
13185;SDS011;6658;53.080;7.428;2022-10-16T01:10:48;3.27;;;1.10;;
13185;SDS011;6658;53.080;7.428;2022-10-16T01:15:32;4.70;;;0.90;;
13185;SDS011;6658;53.080;7.428;2022-10-16T01:18:11;4.47;;;1.57;;
13185;SDS011;6658;53.080;7.428;2022-10-16T01:20:57;2.33;;;1.03;;
13185;SDS011;6658;53.080;7.428;2022-10-16T01:23:32;3.87;;;1.53;;
13185;SDS011;6658;53.080;7.428;2022-10-16T01:31:40;2.77;;;1.10;;
13185;SDS011;6658;53.080;7.428;2022-10-16T01:36:46;2.63;;;1.23;;
13185;SDS011;6658;53.080;7.428;2022-10-16T01:39:16;1.97;;;1.00;;
13185;SDS011;6658;53.080;7.428;2022-10-16T01:41:54;4.40;;;2.03;;
13185;SDS011;6658;53.080;7.428;2022-10-16T01:44:26;6.17;;;1.30;;
13185;SDS011;6658;53.080;7.428;2022-10-16T01:46:56;5.20;;;1.13;;
13185;SDS011;6658;53.080;7.428;2022-10-16T01:49:23;2.50;;;1.47;;
13185;SDS011;6658;53.080;7.428;2022-10-16T01:51:52;3.53;;;1.57;;
13185;SDS011;6658;53.080;7.428;2022-10-16T01:54:20;2.80;;;1.10;;
13185;SDS011;6658;53.080;7.428;2022-10-16T01:56:50;2.33;;;1.03;;
13185;SDS011;6658;53.080;7.428;2022-10-16T01:59:18;2.73;;;1.17;;
13185;SDS011;6658;53.080;7.428;2022-10-16T02:01:50;1.70;;;1.33;;
13185;SDS011;6658;53.080;7.428;2022-10-16T02:04:34;2.87;;;1.13;;
13185;SDS011;6658;53.080;7.428;2022-10-16T02:07:03;4.23;;;0.90;;
13185;SDS011;6658;53.080;7.428;2022-10-16T02:09:30;3.73;;;1.43;;
13185;SDS011;6658;53.080;7.428;2022-10-16T02:11:58;3.70;;;1.40;;
13185;SDS011;6658;53.080;7.428;2022-10-16T02:14:28;3.47;;;1.50;;
13185;SDS011;6658;53.080;7.428;2022-10-16T02:16:54;1.30;;;1.13;;
13185;SDS011;6658;53.080;7.428;2022-10-16T02:19:19;2.73;;;1.37;;
13185;SDS011;6658;53.080;7.428;2022-10-16T02:21:48;2.13;;;1.20;;
13185;SDS011;6658;53.080;7.428;2022-10-16T02:26:48;3.63;;;1.33;;
13185;SDS011;6658;53.080;7.428;2022-10-16T02:29:16;2.70;;;1.20;;
13185;SDS011;6658;53.080;7.428;2022-10-16T02:31:46;1.30;;;1.20;;
13185;SDS011;6658;53.080;7.428;2022-10-16T02:34:16;3.57;;;1.70;;
13185;SDS011;6658;53.080;7.428;2022-10-16T02:36:43;2.50;;;1.37;;
13185;SDS011;6658;53.080;7.428;2022-10-16T02:39:10;1.77;;;1.00;;
13185;SDS011;6658;53.080;7.428;2022-10-16T02:41:36;2.77;;;1.13;;
13185;SDS011;6658;53.080;7.428;2022-10-16T02:44:02;2.10;;;1.20;;
13185;SDS011;6658;53.080;7.428;2022-10-16T02:46:28;2.50;;;1.40;;
13185;SDS011;6658;53.080;7.428;2022-10-16T02:48:54;2.87;;;1.00;;
13185;SDS011;6658;53.080;7.428;2022-10-16T02:51:19;2.10;;;1.37;;
13185;SDS011;6658;53.080;7.428;2022-10-16T02:53:45;4.53;;;1.60;;
13185;SDS011;6658;53.080;7.428;2022-10-16T02:56:10;3.87;;;1.10;;
13185;SDS011;6658;53.080;7.428;2022-10-16T02:58:36;5.07;;;1.10;;
13185;SDS011;6658;53.080;7.428;2022-10-16T03:01:02;2.30;;;0.90;;
13185;SDS011;6658;53.080;7.428;2022-10-16T03:03:28;2.00;;;1.00;;
13185;SDS011;6658;53.080;7.428;2022-10-16T03:05:53;1.67;;;1.00;;
13185;SDS011;6658;53.080;7.428;2022-10-16T03:08:19;1.97;;;0.90;;
13185;SDS011;6658;53.080;7.428;2022-10-16T03:10:48;1.37;;;0.90;;
13185;SDS011;6658;53.080;7.428;2022-10-16T03:13:14;3.27;;;1.00;;
13185;SDS011;6658;53.080;7.428;2022-10-16T03:15:40;1.80;;;1.10;;
13185;SDS011;6658;53.080;7.428;2022-10-16T03:18:06;2.77;;;0.90;;
13185;SDS011;6658;53.080;7.428;2022-10-16T03:20:31;1.87;;;1.10;;
13185;SDS011;6658;53.080;7.428;2022-10-16T03:22:57;1.00;;;0.90;;
13185;SDS011;6658;53.080;7.428;2022-10-16T03:25:23;1.43;;;1.07;;
13185;SDS011;6658;53.080;7.428;2022-10-16T03:27:48;2.30;;;1.00;;
13185;SDS011;6658;53.080;7.428;2022-10-16T03:30:14;2.70;;;1.00;;
13185;SDS011;6658;53.080;7.428;2022-10-16T03:32:41;1.87;;;1.13;;
13185;SDS011;6658;53.080;7.428;2022-10-16T03:35:08;1.23;;;1.10;;
13185;SDS011;6658;53.080;7.428;2022-10-16T03:37:34;1.90;;;1.00;;
13185;SDS011;6658;53.080;7.428;2022-10-16T03:39:59;2.10;;;0.90;;
13185;SDS011;6658;53.080;7.428;2022-10-16T03:42:25;1.33;;;0.77;;
13185;SDS011;6658;53.080;7.428;2022-10-16T03:44:51;1.73;;;1.03;;
13185;SDS011;6658;53.080;7.428;2022-10-16T03:47:16;2.77;;;0.90;;
13185;SDS011;6658;53.080;7.428;2022-10-16T03:49:46;1.17;;;0.87;;
13185;SDS011;6658;53.080;7.428;2022-10-16T03:52:12;1.23;;;0.80;;
13185;SDS011;6658;53.080;7.428;2022-10-16T03:54:38;0.90;;;0.80;;
13185;SDS011;6658;53.080;7.428;2022-10-16T03:57:04;2.80;;;0.90;;
13185;SDS011;6658;53.080;7.428;2022-10-16T03:59:29;1.97;;;1.30;;
13185;SDS011;6658;53.080;7.428;2022-10-16T04:01:55;1.63;;;0.90;;
13185;SDS011;6658;53.080;7.428;2022-10-16T04:04:21;4.17;;;1.97;;
13185;SDS011;6658;53.080;7.428;2022-10-16T04:06:46;3.57;;;1.10;;
13185;SDS011;6658;53.080;7.428;2022-10-16T04:09:12;2.27;;;1.00;;
13185;SDS011;6658;53.080;7.428;2022-10-16T04:11:37;2.07;;;1.23;;
13185;SDS011;6658;53.080;7.428;2022-10-16T04:14:03;3.37;;;1.87;;
13185;SDS011;6658;53.080;7.428;2022-10-16T04:16:29;4.20;;;1.30;;
13185;SDS011;6658;53.080;7.428;2022-10-16T04:18:55;1.90;;;1.30;;
13185;SDS011;6658;53.080;7.428;2022-10-16T04:21:21;1.53;;;1.13;;
13185;SDS011;6658;53.080;7.428;2022-10-16T04:23:47;2.17;;;1.03;;
13185;SDS011;6658;53.080;7.428;2022-10-16T04:26:13;2.67;;;0.90;;
13185;SDS011;6658;53.080;7.428;2022-10-16T04:28:38;3.57;;;1.40;;
13185;SDS011;6658;53.080;7.428;2022-10-16T04:31:05;1.10;;;1.00;;
13185;SDS011;6658;53.080;7.428;2022-10-16T04:33:32;2.20;;;1.10;;
13185;SDS011;6658;53.080;7.428;2022-10-16T04:36:01;1.77;;;1.20;;
13185;SDS011;6658;53.080;7.428;2022-10-16T04:38:28;1.93;;;1.20;;
13185;SDS011;6658;53.080;7.428;2022-10-16T04:40:54;1.57;;;1.10;;
13185;SDS011;6658;53.080;7.428;2022-10-16T04:43:20;2.37;;;1.30;;
13185;SDS011;6658;53.080;7.428;2022-10-16T04:45:46;1.10;;;1.00;;
13185;SDS011;6658;53.080;7.428;2022-10-16T04:48:12;3.07;;;1.10;;
13185;SDS011;6658;53.080;7.428;2022-10-16T04:50:37;3.97;;;1.13;;
13185;SDS011;6658;53.080;7.428;2022-10-16T04:53:03;1.60;;;0.83;;
13185;SDS011;6658;53.080;7.428;2022-10-16T04:55:29;2.23;;;1.50;;
13185;SDS011;6658;53.080;7.428;2022-10-16T04:57:54;2.67;;;1.20;;
13185;SDS011;6658;53.080;7.428;2022-10-16T05:00:20;2.90;;;1.27;;
13185;SDS011;6658;53.080;7.428;2022-10-16T05:02:47;2.57;;;1.60;;
13185;SDS011;6658;53.080;7.428;2022-10-16T05:05:14;1.57;;;1.43;;
13185;SDS011;6658;53.080;7.428;2022-10-16T05:07:40;1.67;;;1.50;;
13185;SDS011;6658;53.080;7.428;2022-10-16T05:10:06;3.20;;;1.80;;
13185;SDS011;6658;53.080;7.428;2022-10-16T05:12:31;1.83;;;1.47;;
13185;SDS011;6658;53.080;7.428;2022-10-16T05:14:57;2.37;;;1.30;;
13185;SDS011;6658;53.080;7.428;2022-10-16T05:17:24;2.77;;;1.67;;
13185;SDS011;6658;53.080;7.428;2022-10-16T05:19:50;1.93;;;1.67;;
13185;SDS011;6658;53.080;7.428;2022-10-16T05:22:16;2.17;;;1.63;;
13185;SDS011;6658;53.080;7.428;2022-10-16T05:24:41;3.00;;;1.30;;
13185;SDS011;6658;53.080;7.428;2022-10-16T05:27:07;2.67;;;1.87;;
13185;SDS011;6658;53.080;7.428;2022-10-16T05:29:33;3.87;;;1.70;;
13185;SDS011;6658;53.080;7.428;2022-10-16T05:31:58;2.67;;;2.00;;
13185;SDS011;6658;53.080;7.428;2022-10-16T05:34:24;2.67;;;1.60;;
13185;SDS011;6658;53.080;7.428;2022-10-16T05:36:50;1.70;;;1.60;;
13185;SDS011;6658;53.080;7.428;2022-10-16T05:39:15;1.60;;;1.50;;
13185;SDS011;6658;53.080;7.428;2022-10-16T05:41:41;2.40;;;1.63;;
13185;SDS011;6658;53.080;7.428;2022-10-16T05:44:08;2.27;;;1.50;;
13185;SDS011;6658;53.080;7.428;2022-10-16T05:46:33;1.67;;;1.57;;
13185;SDS011;6658;53.080;7.428;2022-10-16T05:48:59;2.03;;;1.60;;
13185;SDS011;6658;53.080;7.428;2022-10-16T05:51:25;2.00;;;1.60;;
13185;SDS011;6658;53.080;7.428;2022-10-16T05:53:51;3.13;;;1.90;;
13185;SDS011;6658;53.080;7.428;2022-10-16T05:56:17;2.00;;;1.73;;
13185;SDS011;6658;53.080;7.428;2022-10-16T05:58:43;2.97;;;1.97;;
13185;SDS011;6658;53.080;7.428;2022-10-16T06:01:13;4.97;;;2.00;;
13185;SDS011;6658;53.080;7.428;2022-10-16T06:03:40;2.73;;;1.87;;
13185;SDS011;6658;53.080;7.428;2022-10-16T06:06:09;4.60;;;1.60;;
13185;SDS011;6658;53.080;7.428;2022-10-16T06:08:42;3.17;;;1.90;;
13185;SDS011;6658;53.080;7.428;2022-10-16T06:11:12;2.70;;;2.20;;
13185;SDS011;6658;53.080;7.428;2022-10-16T06:13:39;2.93;;;1.90;;
13185;SDS011;6658;53.080;7.428;2022-10-16T06:16:07;3.30;;;1.87;;
13185;SDS011;6658;53.080;7.428;2022-10-16T06:18:33;2.37;;;2.10;;
13185;SDS011;6658;53.080;7.428;2022-10-16T06:20:59;2.27;;;1.97;;
13185;SDS011;6658;53.080;7.428;2022-10-16T06:23:25;3.17;;;2.47;;
13185;SDS011;6658;53.080;7.428;2022-10-16T06:25:53;2.03;;;1.70;;
13185;SDS011;6658;53.080;7.428;2022-10-16T06:28:18;5.10;;;2.20;;
13185;SDS011;6658;53.080;7.428;2022-10-16T06:30:44;3.17;;;1.80;;
13185;SDS011;6658;53.080;7.428;2022-10-16T06:33:10;5.07;;;2.00;;
13185;SDS011;6658;53.080;7.428;2022-10-16T06:35:36;2.97;;;1.83;;
13185;SDS011;6658;53.080;7.428;2022-10-16T06:38:02;2.27;;;1.73;;
13185;SDS011;6658;53.080;7.428;2022-10-16T06:40:28;1.80;;;1.57;;
13185;SDS011;6658;53.080;7.428;2022-10-16T06:42:56;2.20;;;1.73;;
13185;SDS011;6658;53.080;7.428;2022-10-16T06:45:22;1.80;;;1.70;;
13185;SDS011;6658;53.080;7.428;2022-10-16T06:47:48;6.70;;;2.67;;
13185;SDS011;6658;53.080;7.428;2022-10-16T06:50:13;1.90;;;1.60;;
13185;SDS011;6658;53.080;7.428;2022-10-16T06:52:39;2.93;;;2.00;;
13185;SDS011;6658;53.080;7.428;2022-10-16T06:55:05;1.97;;;1.80;;
13185;SDS011;6658;53.080;7.428;2022-10-16T06:57:31;1.60;;;1.50;;
13185;SDS011;6658;53.080;7.428;2022-10-16T06:59:57;3.03;;;2.03;;
13185;SDS011;6658;53.080;7.428;2022-10-16T07:02:22;3.10;;;2.03;;
13185;SDS011;6658;53.080;7.428;2022-10-16T07:04:48;1.53;;;1.43;;
13185;SDS011;6658;53.080;7.428;2022-10-16T07:07:13;3.27;;;1.97;;
13185;SDS011;6658;53.080;7.428;2022-10-16T07:09:39;2.73;;;1.47;;
13185;SDS011;6658;53.080;7.428;2022-10-16T07:12:05;2.87;;;1.53;;
13185;SDS011;6658;53.080;7.428;2022-10-16T07:14:31;2.53;;;1.90;;
13185;SDS011;6658;53.080;7.428;2022-10-16T07:16:57;1.60;;;1.33;;
13185;SDS011;6658;53.080;7.428;2022-10-16T07:19:22;1.70;;;1.40;;
13185;SDS011;6658;53.080;7.428;2022-10-16T07:21:48;6.33;;;1.50;;
13185;SDS011;6658;53.080;7.428;2022-10-16T07:24:15;1.40;;;1.13;;
13185;SDS011;6658;53.080;7.428;2022-10-16T07:26:42;2.00;;;1.13;;
13185;SDS011;6658;53.080;7.428;2022-10-16T07:29:12;3.07;;;1.60;;
13185;SDS011;6658;53.080;7.428;2022-10-16T07:31:42;4.50;;;1.60;;
13185;SDS011;6658;53.080;7.428;2022-10-16T07:34:09;4.30;;;1.60;;
13185;SDS011;6658;53.080;7.428;2022-10-16T07:36:36;1.30;;;1.10;;
13185;SDS011;6658;53.080;7.428;2022-10-16T07:39:02;2.00;;;1.07;;
13185;SDS011;6658;53.080;7.428;2022-10-16T07:41:28;1.00;;;0.90;;
13185;SDS011;6658;53.080;7.428;2022-10-16T07:43:53;1.57;;;0.90;;
13185;SDS011;6658;53.080;7.428;2022-10-16T07:46:22;2.50;;;1.10;;
13185;SDS011;6658;53.080;7.428;2022-10-16T07:48:48;4.87;;;1.30;;
13185;SDS011;6658;53.080;7.428;2022-10-16T07:51:18;3.37;;;1.33;;
13185;SDS011;6658;53.080;7.428;2022-10-16T07:53:45;3.10;;;1.50;;
13185;SDS011;6658;53.080;7.428;2022-10-16T07:56:11;2.47;;;0.83;;
13185;SDS011;6658;53.080;7.428;2022-10-16T07:58:37;2.10;;;1.20;;
13185;SDS011;6658;53.080;7.428;2022-10-16T08:01:04;1.90;;;1.00;;
13185;SDS011;6658;53.080;7.428;2022-10-16T08:03:32;3.00;;;1.60;;
13185;SDS011;6658;53.080;7.428;2022-10-16T08:05:58;3.03;;;1.63;;
13185;SDS011;6658;53.080;7.428;2022-10-16T08:08:25;1.87;;;1.07;;
13185;SDS011;6658;53.080;7.428;2022-10-16T08:10:52;1.70;;;0.93;;
13185;SDS011;6658;53.080;7.428;2022-10-16T08:13:18;2.73;;;1.20;;
13185;SDS011;6658;53.080;7.428;2022-10-16T08:15:44;1.17;;;0.90;;
13185;SDS011;6658;53.080;7.428;2022-10-16T08:18:10;2.07;;;1.10;;
13185;SDS011;6658;53.080;7.428;2022-10-16T08:20:37;3.43;;;1.00;;
13185;SDS011;6658;53.080;7.428;2022-10-16T08:23:03;2.13;;;1.10;;
13185;SDS011;6658;53.080;7.428;2022-10-16T08:25:29;1.73;;;1.00;;
13185;SDS011;6658;53.080;7.428;2022-10-16T08:27:55;2.67;;;1.20;;
13185;SDS011;6658;53.080;7.428;2022-10-16T08:30:21;2.37;;;0.87;;
13185;SDS011;6658;53.080;7.428;2022-10-16T08:32:48;2.07;;;1.07;;
13185;SDS011;6658;53.080;7.428;2022-10-16T08:35:15;1.70;;;1.17;;
13185;SDS011;6658;53.080;7.428;2022-10-16T08:37:41;1.07;;;0.80;;
13185;SDS011;6658;53.080;7.428;2022-10-16T08:40:07;2.43;;;0.73;;
13185;SDS011;6658;53.080;7.428;2022-10-16T08:42:46;2.53;;;0.70;;
13185;SDS011;6658;53.080;7.428;2022-10-16T08:48:24;1.50;;;1.00;;
13185;SDS011;6658;53.080;7.428;2022-10-16T08:50:52;0.93;;;0.63;;
13185;SDS011;6658;53.080;7.428;2022-10-16T08:53:23;2.13;;;0.77;;
13185;SDS011;6658;53.080;7.428;2022-10-16T08:56:06;2.70;;;1.10;;
13185;SDS011;6658;53.080;7.428;2022-10-16T08:58:32;5.37;;;1.00;;
13185;SDS011;6658;53.080;7.428;2022-10-16T09:00:59;2.33;;;0.97;;
13185;SDS011;6658;53.080;7.428;2022-10-16T09:06:15;2.60;;;0.93;;
13185;SDS011;6658;53.080;7.428;2022-10-16T09:19:53;2.17;;;0.90;;
13185;SDS011;6658;53.080;7.428;2022-10-16T09:22:30;1.63;;;0.73;;
13185;SDS011;6658;53.080;7.428;2022-10-16T09:24:59;1.57;;;0.80;;
13185;SDS011;6658;53.080;7.428;2022-10-16T09:27:34;2.37;;;0.80;;
13185;SDS011;6658;53.080;7.428;2022-10-16T09:30:01;2.20;;;1.37;;
13185;SDS011;6658;53.080;7.428;2022-10-16T09:32:34;2.80;;;0.90;;
13185;SDS011;6658;53.080;7.428;2022-10-16T09:35:00;1.10;;;0.60;;
13185;SDS011;6658;53.080;7.428;2022-10-16T09:37:26;1.77;;;0.70;;
13185;SDS011;6658;53.080;7.428;2022-10-16T09:39:53;0.97;;;0.73;;
13185;SDS011;6658;53.080;7.428;2022-10-16T09:44:49;2.13;;;0.93;;
13185;SDS011;6658;53.080;7.428;2022-10-16T09:47:17;1.53;;;0.70;;
13185;SDS011;6658;53.080;7.428;2022-10-16T09:52:25;1.27;;;0.70;;
13185;SDS011;6658;53.080;7.428;2022-10-16T09:54:51;2.13;;;0.97;;
13185;SDS011;6658;53.080;7.428;2022-10-16T09:57:22;1.73;;;1.00;;
13185;SDS011;6658;53.080;7.428;2022-10-16T09:59:48;3.40;;;1.87;;
13185;SDS011;6658;53.080;7.428;2022-10-16T10:02:30;1.57;;;0.80;;
13185;SDS011;6658;53.080;7.428;2022-10-16T10:05:00;2.93;;;0.80;;
13185;SDS011;6658;53.080;7.428;2022-10-16T10:07:35;2.67;;;1.10;;
13185;SDS011;6658;53.080;7.428;2022-10-16T10:10:16;1.97;;;0.80;;
13185;SDS011;6658;53.080;7.428;2022-10-16T10:12:46;2.27;;;0.87;;
13185;SDS011;6658;53.080;7.428;2022-10-16T10:15:12;2.93;;;1.00;;
13185;SDS011;6658;53.080;7.428;2022-10-16T10:17:45;1.63;;;1.00;;
13185;SDS011;6658;53.080;7.428;2022-10-16T10:22:54;2.13;;;0.90;;
13185;SDS011;6658;53.080;7.428;2022-10-16T10:25:30;2.23;;;0.70;;
13185;SDS011;6658;53.080;7.428;2022-10-16T10:28:15;2.77;;;0.70;;
13185;SDS011;6658;53.080;7.428;2022-10-16T10:34:06;3.10;;;0.80;;
13185;SDS011;6658;53.080;7.428;2022-10-16T10:36:51;4.27;;;1.40;;
13185;SDS011;6658;53.080;7.428;2022-10-16T10:39:25;3.90;;;1.20;;
13185;SDS011;6658;53.080;7.428;2022-10-16T10:42:04;3.30;;;1.10;;
13185;SDS011;6658;53.080;7.428;2022-10-16T10:47:46;3.20;;;1.00;;
13185;SDS011;6658;53.080;7.428;2022-10-16T10:50:25;3.60;;;1.20;;
13185;SDS011;6658;53.080;7.428;2022-10-16T10:55:52;2.93;;;1.23;;
13185;SDS011;6658;53.080;7.428;2022-10-16T11:06:47;6.43;;;1.30;;
13185;SDS011;6658;53.080;7.428;2022-10-16T11:09:21;5.37;;;1.30;;
13185;SDS011;6658;53.080;7.428;2022-10-16T11:11:58;3.47;;;1.40;;
13185;SDS011;6658;53.080;7.428;2022-10-16T11:17:28;2.60;;;0.97;;
13185;SDS011;6658;53.080;7.428;2022-10-16T11:20:02;4.83;;;1.07;;
13185;SDS011;6658;53.080;7.428;2022-10-16T11:22:41;4.47;;;1.00;;
13185;SDS011;6658;53.080;7.428;2022-10-16T11:25:31;2.97;;;0.90;;
13185;SDS011;6658;53.080;7.428;2022-10-16T11:30:24;4.03;;;1.30;;
13185;SDS011;6658;53.080;7.428;2022-10-16T11:38:23;3.93;;;1.63;;
13185;SDS011;6658;53.080;7.428;2022-10-16T11:49:40;3.00;;;0.90;;
13185;SDS011;6658;53.080;7.428;2022-10-16T11:57:29;5.13;;;1.17;;
13185;SDS011;6658;53.080;7.428;2022-10-16T12:05:41;3.47;;;1.13;;
13185;SDS011;6658;53.080;7.428;2022-10-16T12:08:34;3.90;;;0.93;;
13185;SDS011;6658;53.080;7.428;2022-10-16T12:11:07;3.30;;;1.03;;
13185;SDS011;6658;53.080;7.428;2022-10-16T12:16:39;1.17;;;0.60;;
13185;SDS011;6658;53.080;7.428;2022-10-16T12:19:20;4.73;;;1.60;;
13185;SDS011;6658;53.080;7.428;2022-10-16T12:21:46;4.37;;;1.20;;
13185;SDS011;6658;53.080;7.428;2022-10-16T12:27:24;2.50;;;0.80;;
13185;SDS011;6658;53.080;7.428;2022-10-16T12:29:57;4.43;;;1.23;;
13185;SDS011;6658;53.080;7.428;2022-10-16T12:32:37;4.50;;;1.30;;
13185;SDS011;6658;53.080;7.428;2022-10-16T12:35:04;3.50;;;1.10;;
13185;SDS011;6658;53.080;7.428;2022-10-16T12:37:42;2.73;;;1.30;;
13185;SDS011;6658;53.080;7.428;2022-10-16T12:42:49;2.40;;;1.00;;
13185;SDS011;6658;53.080;7.428;2022-10-16T12:45:31;4.77;;;1.30;;
13185;SDS011;6658;53.080;7.428;2022-10-16T12:47:59;3.77;;;1.10;;
13185;SDS011;6658;53.080;7.428;2022-10-16T12:52:56;2.93;;;0.77;;
13185;SDS011;6658;53.080;7.428;2022-10-16T12:55:22;3.53;;;1.27;;
13185;SDS011;6658;53.080;7.428;2022-10-16T12:58:03;4.70;;;1.87;;
13185;SDS011;6658;53.080;7.428;2022-10-16T13:00:50;8.67;;;2.17;;
13185;SDS011;6658;53.080;7.428;2022-10-16T13:17:59;3.10;;;0.93;;
13185;SDS011;6658;53.080;7.428;2022-10-16T13:26:57;3.70;;;1.10;;
13185;SDS011;6658;53.080;7.428;2022-10-16T13:29:29;2.20;;;0.83;;
13185;SDS011;6658;53.080;7.428;2022-10-16T13:31:57;4.93;;;1.00;;
13185;SDS011;6658;53.080;7.428;2022-10-16T13:34:23;3.23;;;1.20;;
13185;SDS011;6658;53.080;7.428;2022-10-16T13:36:51;4.23;;;1.00;;
13185;SDS011;6658;53.080;7.428;2022-10-16T13:42:05;3.07;;;1.03;;
13185;SDS011;6658;53.080;7.428;2022-10-16T13:44:47;3.37;;;0.90;;
13185;SDS011;6658;53.080;7.428;2022-10-16T13:47:26;3.53;;;1.10;;
13185;SDS011;6658;53.080;7.428;2022-10-16T13:50:15;4.03;;;1.10;;
13185;SDS011;6658;53.080;7.428;2022-10-16T13:52:41;3.43;;;1.07;;
13185;SDS011;6658;53.080;7.428;2022-10-16T13:55:11;4.27;;;1.13;;
13185;SDS011;6658;53.080;7.428;2022-10-16T13:57:41;4.97;;;1.47;;
13185;SDS011;6658;53.080;7.428;2022-10-16T14:00:20;4.50;;;1.50;;
13185;SDS011;6658;53.080;7.428;2022-10-16T14:03:30;4.10;;;1.57;;
13185;SDS011;6658;53.080;7.428;2022-10-16T14:05:43;4.53;;;1.70;;
13185;SDS011;6658;53.080;7.428;2022-10-16T14:08:14;4.37;;;1.00;;
13185;SDS011;6658;53.080;7.428;2022-10-16T14:10:40;2.13;;;0.90;;
13185;SDS011;6658;53.080;7.428;2022-10-16T14:13:06;3.83;;;1.00;;
13185;SDS011;6658;53.080;7.428;2022-10-16T14:15:34;5.20;;;1.07;;
13185;SDS011;6658;53.080;7.428;2022-10-16T14:18:01;3.93;;;1.20;;
13185;SDS011;6658;53.080;7.428;2022-10-16T14:20:31;3.73;;;1.00;;
13185;SDS011;6658;53.080;7.428;2022-10-16T14:23:03;3.13;;;1.20;;
13185;SDS011;6658;53.080;7.428;2022-10-16T14:25:51;4.00;;;1.00;;
13185;SDS011;6658;53.080;7.428;2022-10-16T14:33:20;3.60;;;0.93;;
13185;SDS011;6658;53.080;7.428;2022-10-16T14:38:40;6.90;;;1.50;;
13185;SDS011;6658;53.080;7.428;2022-10-16T14:41:13;2.90;;;1.33;;
13185;SDS011;6658;53.080;7.428;2022-10-16T14:43:40;3.27;;;1.60;;
13185;SDS011;6658;53.080;7.428;2022-10-16T14:46:14;5.30;;;1.50;;
13185;SDS011;6658;53.080;7.428;2022-10-16T14:48:46;6.43;;;1.43;;
13185;SDS011;6658;53.080;7.428;2022-10-16T14:51:16;4.00;;;1.50;;
13185;SDS011;6658;53.080;7.428;2022-10-16T14:53:42;5.27;;;1.67;;
13185;SDS011;6658;53.080;7.428;2022-10-16T14:56:08;2.23;;;1.13;;
13185;SDS011;6658;53.080;7.428;2022-10-16T14:58:44;3.63;;;1.30;;
13185;SDS011;6658;53.080;7.428;2022-10-16T15:01:10;5.27;;;1.60;;
13185;SDS011;6658;53.080;7.428;2022-10-16T15:03:36;2.93;;;1.13;;
13185;SDS011;6658;53.080;7.428;2022-10-16T15:06:03;5.67;;;1.30;;
13185;SDS011;6658;53.080;7.428;2022-10-16T15:08:28;2.70;;;1.33;;
13185;SDS011;6658;53.080;7.428;2022-10-16T15:10:54;4.00;;;1.13;;
13185;SDS011;6658;53.080;7.428;2022-10-16T15:13:20;3.27;;;1.20;;
13185;SDS011;6658;53.080;7.428;2022-10-16T15:15:46;6.20;;;1.77;;
13185;SDS011;6658;53.080;7.428;2022-10-16T15:18:14;1.90;;;0.90;;
13185;SDS011;6658;53.080;7.428;2022-10-16T15:20:45;6.57;;;5.37;;
13185;SDS011;6658;53.080;7.428;2022-10-16T15:23:13;3.57;;;1.17;;
13185;SDS011;6658;53.080;7.428;2022-10-16T15:28:17;4.63;;;1.30;;
13185;SDS011;6658;53.080;7.428;2022-10-16T15:30:44;4.77;;;1.20;;
13185;SDS011;6658;53.080;7.428;2022-10-16T15:33:14;2.83;;;1.00;;
13185;SDS011;6658;53.080;7.428;2022-10-16T15:35:42;3.13;;;1.20;;
13185;SDS011;6658;53.080;7.428;2022-10-16T15:38:11;2.73;;;0.83;;
13185;SDS011;6658;53.080;7.428;2022-10-16T15:40:37;3.97;;;1.27;;
13185;SDS011;6658;53.080;7.428;2022-10-16T15:43:03;3.00;;;1.50;;
13185;SDS011;6658;53.080;7.428;2022-10-16T15:45:29;2.97;;;1.20;;
13185;SDS011;6658;53.080;7.428;2022-10-16T15:47:55;3.07;;;1.50;;
13185;SDS011;6658;53.080;7.428;2022-10-16T15:50:20;4.27;;;1.43;;
13185;SDS011;6658;53.080;7.428;2022-10-16T15:52:46;6.30;;;1.70;;
13185;SDS011;6658;53.080;7.428;2022-10-16T15:55:12;6.37;;;1.67;;
13185;SDS011;6658;53.080;7.428;2022-10-16T15:57:39;5.83;;;1.47;;
13185;SDS011;6658;53.080;7.428;2022-10-16T16:00:08;3.20;;;1.20;;
13185;SDS011;6658;53.080;7.428;2022-10-16T16:02:35;4.23;;;1.70;;
13185;SDS011;6658;53.080;7.428;2022-10-16T16:05:01;4.00;;;1.70;;
13185;SDS011;6658;53.080;7.428;2022-10-16T16:07:27;6.90;;;1.33;;
13185;SDS011;6658;53.080;7.428;2022-10-16T16:09:53;4.57;;;2.47;;
13185;SDS011;6658;53.080;7.428;2022-10-16T16:12:19;5.97;;;2.47;;
13185;SDS011;6658;53.080;7.428;2022-10-16T16:14:44;6.87;;;2.80;;
13185;SDS011;6658;53.080;7.428;2022-10-16T16:17:13;8.03;;;3.10;;
13185;SDS011;6658;53.080;7.428;2022-10-16T16:19:39;7.97;;;3.53;;
13185;SDS011;6658;53.080;7.428;2022-10-16T16:22:04;12.83;;;5.87;;
13185;SDS011;6658;53.080;7.428;2022-10-16T16:24:30;7.77;;;3.43;;
13185;SDS011;6658;53.080;7.428;2022-10-16T16:26:55;6.73;;;3.00;;
13185;SDS011;6658;53.080;7.428;2022-10-16T16:29:21;6.20;;;2.70;;
13185;SDS011;6658;53.080;7.428;2022-10-16T16:31:47;6.93;;;2.57;;
13185;SDS011;6658;53.080;7.428;2022-10-16T16:34:13;5.40;;;3.20;;
13185;SDS011;6658;53.080;7.428;2022-10-16T16:36:39;9.47;;;4.93;;
13185;SDS011;6658;53.080;7.428;2022-10-16T16:39:05;9.73;;;5.03;;
13185;SDS011;6658;53.080;7.428;2022-10-16T16:41:32;9.43;;;4.70;;
13185;SDS011;6658;53.080;7.428;2022-10-16T16:44:02;11.43;;;3.87;;
13185;SDS011;6658;53.080;7.428;2022-10-16T16:46:29;10.27;;;5.00;;
13185;SDS011;6658;53.080;7.428;2022-10-16T16:48:57;9.27;;;6.27;;
13185;SDS011;6658;53.080;7.428;2022-10-16T16:51:23;9.13;;;5.27;;
13185;SDS011;6658;53.080;7.428;2022-10-16T16:53:50;11.63;;;5.20;;
13185;SDS011;6658;53.080;7.428;2022-10-16T16:56:17;7.33;;;4.60;;
13185;SDS011;6658;53.080;7.428;2022-10-16T16:58:47;8.53;;;4.40;;
13185;SDS011;6658;53.080;7.428;2022-10-16T17:01:14;7.50;;;4.53;;
13185;SDS011;6658;53.080;7.428;2022-10-16T17:03:41;8.07;;;3.73;;
13185;SDS011;6658;53.080;7.428;2022-10-16T17:06:12;8.83;;;5.10;;
13185;SDS011;6658;53.080;7.428;2022-10-16T17:08:42;5.83;;;3.97;;
13185;SDS011;6658;53.080;7.428;2022-10-16T17:11:11;10.13;;;3.83;;
13185;SDS011;6658;53.080;7.428;2022-10-16T17:13:38;6.27;;;4.13;;
13185;SDS011;6658;53.080;7.428;2022-10-16T17:16:05;7.93;;;4.53;;
13185;SDS011;6658;53.080;7.428;2022-10-16T17:18:31;8.13;;;4.43;;
13185;SDS011;6658;53.080;7.428;2022-10-16T17:21:02;8.33;;;4.13;;
13185;SDS011;6658;53.080;7.428;2022-10-16T17:23:30;11.27;;;5.27;;
13185;SDS011;6658;53.080;7.428;2022-10-16T17:25:56;7.10;;;4.43;;